Time;durP1;ratioP1;P1;durP2;ratioP2;P2;SDS_P1;SDS_P2;PMS_P1;PMS_P2;Temp;Humidity;BMP_temperature;BMP_pressure;BME280_temperature;BME280_humidity;BME280_pressure;Samples;Min_cycle;Max_cycle;Signal;HPM_P1;HPM_P2
2022/01/22 00:02:08;;;;;;;6.35;4.53;;;;;;;-0.01;61.60;99669.72;5065698;28;20044;-64
2022/01/22 00:04:38;;;;;;;6.80;4.60;;;;;;;0.26;62.50;99712.09;5065801;28;20049;-63
2022/01/22 00:07:09;;;;;;;6.30;4.65;;;;;;;0.24;62.51;99711.22;5066173;28;20048;-65
2022/01/22 00:09:46;;;;;;;7.47;5.43;;;;;;;-0.52;62.96;99576.34;5065431;28;20317;-63
2022/01/22 00:12:31;;;;;;;7.47;4.80;;;;;;;0.28;62.54;99686.88;5064772;28;20041;-64
2022/01/22 00:15:06;;;;;;;6.55;4.30;;;;;;;0.27;62.61;99692.97;5065830;28;20041;-64
2022/01/22 00:17:38;;;;;;;5.82;4.55;;;;;;;0.32;63.09;99689.44;5065682;28;20037;-64
2022/01/22 00:20:12;;;;;;;8.20;4.90;;;;;;;0.34;63.08;99695.53;5065508;28;20047;-64
2022/01/22 00:22:45;;;;;;;7.70;5.50;;;;;;;0.35;63.07;99692.03;5065503;28;20174;-65
2022/01/22 00:25:21;;;;;;;7.80;5.00;;;;;;;0.37;63.04;99674.63;5064543;28;20049;-64
2022/01/22 00:27:53;;;;;;;7.25;5.22;;;;;;;0.36;63.81;99654.66;5064714;28;20052;-64
2022/01/22 00:30:27;;;;;;;6.45;5.10;;;;;;;0.37;63.35;99659.00;5064583;28;20087;-65
2022/01/22 00:32:59;;;;;;;8.07;4.07;;;;;;;0.36;63.84;99652.03;5065306;28;20037;-65
2022/01/22 00:35:32;;;;;;;6.63;4.68;;;;;;;0.35;64.32;99663.34;5065164;28;20079;-65
2022/01/22 00:38:04;;;;;;;6.90;5.75;;;;;;;0.24;63.97;99620.00;5064380;28;20267;-65
2022/01/22 00:40:38;;;;;;;5.43;4.18;;;;;;;0.38;63.87;99637.25;5048850;28;20036;-65
2022/01/22 00:43:11;;;;;;;7.05;4.95;;;;;;;0.37;64.23;99635.53;5065232;28;20049;-65
2022/01/22 00:45:43;;;;;;;5.55;4.45;;;;;;;0.34;64.86;99638.16;5065151;28;20086;-65
2022/01/22 00:48:15;;;;;;;6.60;5.03;;;;;;;0.37;64.34;99612.91;5065054;28;20087;-65
2022/01/22 00:50:51;;;;;;;8.82;5.82;;;;;;;0.39;63.98;99586.84;5065294;28;20170;-65
2022/01/22 00:53:24;;;;;;;8.80;5.38;;;;;;;0.37;64.11;99604.22;5064508;28;20064;-65
2022/01/22 00:55:57;;;;;;;6.75;4.88;;;;;;;0.36;64.90;99594.69;5064796;28;20041;-64
2022/01/22 00:58:30;;;;;;;6.53;4.38;;;;;;;0.39;65.61;99618.13;5064248;28;20281;-64
2022/01/22 01:01:02;;;;;;;7.00;5.43;;;;;;;0.40;64.64;99573.78;5065094;28;20091;-64
2022/01/22 01:03:35;;;;;;;6.88;4.20;;;;;;;0.40;65.18;99573.78;5065249;28;20045;-65
2022/01/22 01:06:07;;;;;;;6.38;4.53;;;;;;;0.39;65.18;99568.59;5064866;28;20057;-65
2022/01/22 01:08:39;;;;;;;5.22;3.97;;;;;;;0.37;65.54;99555.56;5064201;28;20048;-66
2022/01/22 01:11:15;;;;;;;5.68;3.85;;;;;;;0.39;65.76;99586.84;5064924;28;20095;-64
2022/01/22 01:13:55;;;;;;;5.18;3.78;;;;;;;0.37;66.12;99586.84;5047913;28;20045;-64
2022/01/22 01:16:45;;;;;;;5.30;3.85;;;;;;;-0.20;66.47;99489.25;5065104;28;20293;-65
2022/01/22 01:33:37;;;;;;;4.65;2.83;;;;;;;0.36;66.52;99568.63;5064727;28;20094;-64
2022/01/22 01:36:11;;;;;;;7.55;4.03;;;;;;;0.04;66.86;99516.81;5064645;28;20041;-65
2022/01/22 01:38:50;;;;;;;3.53;2.50;;;;;;;0.34;66.87;99581.66;5064747;28;20261;-65
2022/01/22 01:41:30;;;;;;;5.82;3.65;;;;;;;-0.60;67.61;99408.91;5065217;28;20184;-65
2022/01/22 01:44:05;;;;;;;3.78;2.65;;;;;;;-0.00;67.71;99509.91;5047361;28;20372;-65
2022/01/22 01:46:43;;;;;;;7.07;2.92;;;;;;;-0.03;67.88;99495.16;5065199;28;20284;-65
2022/01/22 01:49:17;;;;;;;4.63;3.13;;;;;;;0.27;68.32;99548.72;5064168;28;20041;-65
2022/01/22 01:51:49;;;;;;;5.28;3.15;;;;;;;0.05;68.66;99508.97;5063983;28;20037;-66
2022/01/22 01:54:44;;;;;;;6.80;4.05;;;;;;;-0.58;67.62;99404.56;5064100;28;20094;-65
2022/01/22 01:57:32;;;;;;;3.92;3.08;;;;;;;-0.07;68.29;99468.28;5065100;28;20091;-66
2022/01/22 02:00:22;;;;;;;5.47;2.95;;;;;;;-0.96;68.24;99339.00;5051779;28;20053;-65
2022/01/22 02:02:55;;;;;;;4.97;2.75;;;;;;;0.27;67.16;99497.44;5067688;28;20047;-65
2022/01/22 02:05:27;;;;;;;3.92;3.35;;;;;;;0.30;67.77;99522.63;5067145;28;20313;-65
2022/01/22 02:08:01;;;;;;;5.70;3.15;;;;;;;0.29;67.19;99513.94;5068520;28;20285;-66
2022/01/22 02:10:39;;;;;;;4.82;3.42;;;;;;;-0.11;67.86;99442.28;5067792;28;20291;-65
2022/01/22 02:24:45;;;;;;;4.90;3.08;;;;;;;0.29;68.30;99466.16;5046672;28;20076;-65
2022/01/22 02:27:15;;;;;;;3.60;2.90;;;;;;;0.32;68.26;99444.38;5064565;28;20087;-65
2022/01/22 02:29:46;;;;;;;3.90;2.90;;;;;;;0.34;68.16;99463.47;5067887;28;20048;-65
2022/01/22 02:35:14;;;;;;;5.10;2.42;;;;;;;0.27;69.15;99432.28;5066656;28;20120;-65
2022/01/22 02:37:54;;;;;;;3.88;2.65;;;;;;;0.30;69.36;99452.22;5067595;28;20045;-65
2022/01/22 02:40:29;;;;;;;7.20;2.83;;;;;;;-0.82;69.23;99248.66;5067900;28;20102;-66
2022/01/22 02:43:03;;;;;;;3.30;2.78;;;;;;;0.25;70.64;99448.81;5066481;28;20301;-65
2022/01/22 02:45:38;;;;;;;3.22;2.58;;;;;;;0.24;70.56;99442.75;5067282;28;20289;-65
2022/01/22 02:48:10;;;;;;;3.83;2.85;;;;;;;-0.66;70.68;99311.81;5067184;28;20063;-65
2022/01/22 02:50:43;;;;;;;3.47;2.20;;;;;;;0.20;71.55;99420.19;5067074;28;20087;-64
2022/01/22 02:53:16;;;;;;;3.97;2.50;;;;;;;0.18;71.43;99423.69;5067296;28;20095;-65
2022/01/22 02:55:50;;;;;;;2.92;2.13;;;;;;;0.20;70.75;99395.88;5067217;28;20171;-65
2022/01/22 02:58:23;;;;;;;4.38;2.50;;;;;;;-1.06;71.61;99177.78;5067263;28;20277;-66
2022/01/22 03:00:55;;;;;;;3.83;2.75;;;;;;;-0.12;71.68;99344.16;5049882;28;20111;-66
2022/01/22 03:03:28;;;;;;;3.47;2.05;;;;;;;0.16;71.59;99378.56;5066902;28;20099;-66
2022/01/22 03:06:01;;;;;;;3.20;2.60;;;;;;;0.13;72.04;99374.25;5067173;28;20064;-66
2022/01/22 03:08:35;;;;;;;4.07;2.25;;;;;;;0.13;71.77;99366.41;5066828;28;20313;-65
2022/01/22 03:11:17;;;;;;;3.53;2.30;;;;;;;0.12;71.77;99366.44;5065602;28;20057;-66
2022/01/22 03:16:56;;;;;;;3.42;2.35;;;;;;;0.09;72.03;99369.94;5066644;28;20063;-65
2022/01/22 03:19:58;;;;;;;4.07;2.25;;;;;;;0.13;71.16;99313.44;5066548;28;20040;-66
2022/01/22 03:22:52;;;;;;;2.95;2.00;;;;;;;0.13;71.25;99361.22;5066735;28;20037;-66
2022/01/22 03:28:18;;;;;;;3.58;2.25;;;;;;;0.14;70.80;99338.63;5066692;28;20107;-66
2022/01/22 03:30:51;;;;;;;3.15;2.13;;;;;;;0.16;70.46;99355.09;5066374;28;20083;-66
2022/01/22 03:33:25;;;;;;;3.25;2.08;;;;;;;0.21;70.92;99355.91;5066591;28;20041;-66
2022/01/22 03:35:59;;;;;;;3.25;2.30;;;;;;;0.19;71.24;99334.22;5065460;28;20044;-66
2022/01/22 03:38:31;;;;;;;3.05;2.40;;;;;;;0.21;71.02;99302.03;5066371;28;20045;-65
2022/01/22 03:41:05;;;;;;;2.72;1.90;;;;;;;-0.03;70.75;99265.88;5066193;28;20087;-65
2022/01/22 03:43:38;;;;;;;2.42;1.70;;;;;;;0.25;70.63;99302.84;5066073;28;20040;-66
2022/01/22 03:46:10;;;;;;;3.28;2.08;;;;;;;-0.02;70.92;99292.81;5066027;28;20098;-66
2022/01/22 03:48:42;;;;;;;3.05;2.10;;;;;;;0.25;71.36;99297.63;5066243;28;20049;-66
2022/01/22 03:51:15;;;;;;;3.65;2.00;;;;;;;0.26;71.28;99310.63;5066249;28;20087;-66
2022/01/22 03:53:47;;;;;;;2.80;1.75;;;;;;;0.26;71.06;99296.75;5065859;28;20208;-65
2022/01/22 03:56:23;;;;;;;2.40;1.60;;;;;;;0.23;72.20;99300.25;5065899;28;20041;-65
2022/01/22 03:58:55;;;;;;;2.70;2.03;;;;;;;0.23;72.00;99302.00;5065719;28;20048;-66
2022/01/22 04:04:20;;;;;;;2.53;1.60;;;;;;;0.20;73.16;99326.38;5064765;28;20045;-66
2022/01/22 04:09:43;;;;;;;2.58;1.95;;;;;;;0.20;73.16;99297.69;5065639;28;20087;-66
2022/01/22 04:12:23;;;;;;;5.63;1.80;;;;;;;0.19;73.83;99303.78;5065573;28;20082;-65
2022/01/22 04:15:00;;;;;;;2.30;1.40;;;;;;;-0.18;73.15;99255.69;5065538;28;20264;-66
2022/01/22 04:26:06;;;;;;;2.13;1.50;;;;;;;0.08;75.04;99334.34;5065387;28;20082;-66
2022/01/22 04:28:40;;;;;;;2.95;1.67;;;;;;;0.07;74.74;99335.22;5065596;28;20045;-66
2022/01/22 04:31:12;;;;;;;2.15;1.50;;;;;;;0.09;74.68;99327.41;5065338;28;20041;-66
2022/01/22 04:33:44;;;;;;;2.28;1.50;;;;;;;0.09;74.25;99332.59;5065571;28;20086;-66
2022/01/22 04:36:16;;;;;;;1.88;1.30;;;;;;;0.10;74.12;99329.97;5065503;28;20045;-65
2022/01/22 04:38:48;;;;;;;2.95;1.77;;;;;;;0.09;74.02;99341.28;5065383;28;20293;-66
2022/01/22 04:41:21;;;;;;;2.63;1.60;;;;;;;0.10;74.61;99334.34;5065499;28;20178;-65
2022/01/22 04:43:59;;;;;;;2.17;1.48;;;;;;;0.09;74.75;99341.28;5064385;28;20084;-65
2022/01/22 04:55:04;;;;;;;3.22;1.60;;;;;;;0.17;74.66;99335.97;5065018;28;20063;-66
2022/01/22 04:57:39;;;;;;;1.98;1.45;;;;;;;-6.07;73.29;98858.56;5065018;28;20296;-66
2022/01/22 05:00:17;;;;;;;3.58;1.67;;;;;;;0.22;73.81;99326.34;5065333;28;20062;-66
2022/01/22 05:02:50;;;;;;;2.53;1.38;;;;;;;0.24;74.06;99342.81;5065006;28;20045;-66
2022/01/22 05:05:22;;;;;;;2.63;1.70;;;;;;;0.24;74.08;99348.91;5065008;28;20057;-66
2022/01/22 05:07:54;;;;;;;2.03;1.60;;;;;;;0.23;73.90;99330.69;5065296;28;20041;-66
2022/01/22 05:10:27;;;;;;;2.95;1.98;;;;;;;-0.06;74.13;99272.00;5064959;28;20045;-65
2022/01/22 05:12:59;;;;;;;3.47;1.90;;;;;;;0.22;74.00;99324.59;5064921;28;20045;-65
2022/01/22 05:15:33;;;;;;;4.45;1.50;;;;;;;0.24;73.16;99343.69;5064937;28;20209;-66
2022/01/22 05:18:07;;;;;;;2.50;1.50;;;;;;;0.21;74.19;99329.84;5064836;28;20065;-66
2022/01/22 05:20:46;;;;;;;2.30;1.58;;;;;;;0.17;75.26;99347.25;5064937;28;20041;-66
2022/01/22 05:23:19;;;;;;;2.83;1.80;;;;;;;0.18;74.72;99346.38;5064828;28;20041;-66
2022/01/22 05:25:55;;;;;;;2.03;1.40;;;;;;;0.17;74.90;99333.38;5064802;28;20041;-66
2022/01/22 05:31:41;;;;;;;2.67;1.75;;;;;;;0.19;74.84;99345.50;5004124;28;20054;-66
2022/01/22 05:37:06;;;;;;;2.30;1.60;;;;;;;0.22;74.68;99349.81;5037128;28;20248;-66
2022/01/22 05:39:39;;;;;;;3.08;1.60;;;;;;;0.22;74.53;99355.88;5068441;28;20033;-66
2022/01/22 05:42:11;;;;;;;2.03;1.42;;;;;;;0.24;73.95;99350.66;5068728;28;20347;-66
2022/01/22 05:44:43;;;;;;;1.90;1.42;;;;;;;0.27;73.24;99348.00;5068716;28;20045;-66
2022/01/22 05:47:20;;;;;;;3.00;1.50;;;;;;;0.27;73.51;99358.41;5068444;28;20041;-66
2022/01/22 05:49:49;;;;;;;2.28;1.60;;;;;;;0.27;74.14;99372.31;5068549;28;20053;-67
2022/01/22 05:52:26;;;;;;;2.70;1.60;;;;;;;0.28;74.71;99365.34;5069305;28;20040;-66
2022/01/22 05:55:28;;;;;;;3.97;1.55;;;;;;;0.26;74.85;99381.03;5068463;28;20040;-66
2022/01/22 06:00:52;;;;;;;2.10;1.60;;;;;;;0.25;75.01;99381.91;5068140;28;20343;-66
2022/01/22 06:03:26;;;;;;;;;;;;;;;0.24;75.89;99381.94;5068765;28;20049;-65
2022/01/22 06:06:00;;;;;;;3.75;1.80;;;;;;;0.24;75.23;99387.13;5067165;28;19925;-65
2022/01/22 06:08:34;;;;;;;2.13;1.52;;;;;;;-0.10;75.09;99329.38;5067985;28;20090;-65
2022/01/22 06:11:09;;;;;;;2.40;1.80;;;;;;;0.24;75.33;99388.00;5068120;28;20041;-65
2022/01/22 06:13:46;;;;;;;2.90;1.63;;;;;;;0.25;75.26;99387.13;5068049;28;20376;-65
2022/01/22 06:16:20;;;;;;;3.80;2.00;;;;;;;0.04;75.14;99335.28;5067667;28;20047;-65
2022/01/22 06:18:53;;;;;;;2.40;1.60;;;;;;;-0.88;75.29;99191.47;5067157;28;20059;-65
2022/01/22 06:21:26;;;;;;;2.75;2.00;;;;;;;0.28;74.77;99389.69;5067047;28;20037;-65
2022/01/22 06:23:58;;;;;;;2.38;1.73;;;;;;;0.32;74.72;99394.84;5067920;28;20142;-65
2022/01/22 06:26:30;;;;;;;2.70;1.60;;;;;;;0.32;75.46;99408.75;5067654;28;20040;-65
2022/01/22 06:29:03;;;;;;;2.80;2.15;;;;;;;0.32;75.12;99433.97;5067557;28;20087;-65
2022/01/22 06:31:36;;;;;;;2.60;1.60;;;;;;;0.30;75.28;99413.13;5067542;28;20061;-65
2022/01/22 06:34:09;;;;;;;2.45;1.90;;;;;;;0.34;75.23;99432.19;5067896;28;20170;-65
2022/01/22 06:36:41;;;;;;;2.63;2.00;;;;;;;0.33;75.78;99427.88;5067511;28;20251;-65
2022/01/22 06:39:16;;;;;;;2.90;2.03;;;;;;;-1.45;75.86;99134.88;5067458;28;20049;-65
2022/01/22 06:41:47;;;;;;;2.92;2.08;;;;;;;0.28;76.07;99444.44;5067322;28;20092;-66
2022/01/22 06:44:21;;;;;;;2.30;1.70;;;;;;;0.31;75.88;99450.47;5066982;28;20041;-65
2022/01/22 06:46:55;;;;;;;2.70;1.63;;;;;;;0.33;75.49;99428.72;5067654;28;20087;-65
2022/01/22 06:49:30;;;;;;;2.30;1.70;;;;;;;0.07;75.35;99415.16;5067428;28;20049;-65
2022/01/22 06:52:02;;;;;;;;;;;;;;;0.29;76.87;99479.19;5067728;28;20041;-65
2022/01/22 06:54:35;;;;;;;4.07;2.20;;;;;;;0.31;75.25;99469.59;5067568;28;19959;-65
2022/01/22 06:57:07;;;;;;;2.72;1.90;;;;;;;0.37;74.84;99482.56;5067066;28;20236;-65
2022/01/22 06:59:39;;;;;;;4.75;2.28;;;;;;;0.41;74.71;99491.19;5067436;28;20239;-65
2022/01/22 07:02:13;;;;;;;2.95;2.00;;;;;;;0.39;75.77;99485.16;5066856;28;20087;-65
2022/01/22 07:04:43;;;;;;;3.28;2.10;;;;;;;0.41;75.89;99497.28;5066693;28;20116;-65
2022/01/22 07:07:12;;;;;;;6.55;2.50;;;;;;;0.16;75.32;99444.56;5067184;28;20104;-65
2022/01/22 07:09:42;;;;;;;2.95;2.42;;;;;;;0.44;75.54;99502.47;5066810;28;20158;-65
2022/01/22 07:12:13;;;;;;;2.78;1.98;;;;;;;0.44;75.78;99499.84;5066762;28;20064;-65
2022/01/22 07:14:45;;;;;;;3.13;2.03;;;;;;;0.44;76.23;99494.63;5066931;28;20068;-65
2022/01/22 07:17:18;;;;;;;3.10;2.05;;;;;;;0.47;75.76;99494.59;5066831;28;20040;-65
2022/01/22 07:19:52;;;;;;;2.88;2.25;;;;;;;0.47;76.62;99505.03;5066859;28;20044;-65
2022/01/22 07:22:38;;;;;;;2.83;2.10;;;;;;;0.49;75.99;99511.09;5066888;28;20174;-65
2022/01/22 07:25:10;;;;;;;2.83;1.83;;;;;;;0.50;76.79;99532.81;5066693;28;20178;-64
2022/01/22 07:27:42;;;;;;;2.78;1.83;;;;;;;0.53;76.53;99518.00;5066182;28;20045;-65
2022/01/22 07:30:15;;;;;;;2.65;1.70;;;;;;;0.55;76.27;99528.41;5066450;28;20048;-65
2022/01/22 07:32:47;;;;;;;2.78;2.00;;;;;;;0.60;76.45;99531.81;5066330;28;20085;-65
2022/01/22 07:35:20;;;;;;;4.10;2.20;;;;;;;0.63;76.07;99531.78;5066222;28;20090;-66
2022/01/22 07:37:52;;;;;;;4.60;2.28;;;;;;;0.68;75.53;99537.81;5066299;28;20044;-65
2022/01/22 07:40:25;;;;;;;4.85;2.58;;;;;;;0.70;75.88;99546.47;5065663;28;20048;-66
2022/01/22 07:42:57;;;;;;;3.47;2.20;;;;;;;0.45;75.43;99513.75;5066219;28;20216;-66
2022/01/22 07:45:30;;;;;;;3.92;2.30;;;;;;;0.76;75.47;99541.19;5066128;28;20232;-66
2022/01/22 07:48:02;;;;;;;5.47;2.17;;;;;;;0.81;75.51;99548.97;5066363;28;20107;-66
2022/01/22 07:50:35;;;;;;;4.93;1.83;;;;;;;0.87;75.56;99556.72;5065321;28;20064;-66
2022/01/22 07:53:07;;;;;;;4.20;2.30;;;;;;;0.93;75.65;99559.25;5065994;28;20049;-66
2022/01/22 07:55:40;;;;;;;2.90;1.98;;;;;;;0.98;75.75;99567.00;5065649;28;20040;-66
2022/01/22 07:58:14;;;;;;;3.65;2.33;;;;;;;0.71;75.92;99510.81;5065883;28;20049;-66
2022/01/22 08:00:46;;;;;;;4.22;2.10;;;;;;;1.06;75.86;99566.03;5066151;28;20090;-66
2022/01/22 08:03:18;;;;;;;3.10;2.22;;;;;;;1.10;75.27;99567.69;5065920;28;20040;-66
2022/01/22 08:05:52;;;;;;;5.15;2.40;;;;;;;1.12;75.75;99576.38;5065543;28;20062;-66
2022/01/22 08:08:24;;;;;;;3.63;2.30;;;;;;;1.15;75.56;99581.56;5065553;28;20041;-66
2022/01/22 08:10:56;;;;;;;3.22;2.10;;;;;;;1.16;75.82;99570.22;5065518;28;20045;-66
2022/01/22 08:13:29;;;;;;;3.25;1.83;;;;;;;1.21;75.17;99583.22;5065794;28;20083;-66
2022/01/22 08:16:01;;;;;;;3.25;2.17;;;;;;;1.25;75.14;99582.28;5065485;28;20094;-66
2022/01/22 08:18:33;;;;;;;2.65;2.10;;;;;;;1.26;75.37;99589.25;5065671;28;20102;-66
2022/01/22 08:21:07;;;;;;;4.60;2.75;;;;;;;1.28;74.85;99584.88;5065417;28;20244;-66
2022/01/22 08:23:39;;;;;;;4.20;2.60;;;;;;;1.30;74.96;99580.47;5065495;28;20087;-66
2022/01/22 08:26:16;;;;;;;3.28;2.38;;;;;;;1.28;75.24;99592.69;5065276;28;20044;-66
2022/01/22 08:28:57;;;;;;;4.57;3.30;;;;;;;1.28;75.53;99594.44;5065501;28;20102;-66
2022/01/22 08:31:46;;;;;;;3.53;2.47;;;;;;;1.31;75.32;99591.78;5065233;28;20037;-67
2022/01/22 08:37:10;;;;;;;3.25;2.17;;;;;;;1.35;75.53;99588.25;5065349;28;20041;-66
2022/01/22 08:39:43;;;;;;;3.60;2.17;;;;;;;1.40;75.21;99578.59;5064936;28;20055;-66
2022/01/22 08:42:13;;;;;;;4.93;2.45;;;;;;;1.42;75.13;99609.03;5065325;28;20045;-66
2022/01/22 08:44:43;;;;;;;3.30;2.20;;;;;;;1.43;75.26;99600.31;5065295;28;20029;-66
2022/01/22 08:47:13;;;;;;;3.42;2.40;;;;;;;1.46;74.75;99602.88;5065017;28;20047;-66
2022/01/22 08:49:43;;;;;;;2.70;1.90;;;;;;;1.23;74.77;99561.44;5064026;28;20033;-66
2022/01/22 08:52:16;;;;;;;3.83;2.00;;;;;;;1.56;75.16;99614.94;5064943;28;20037;-66
2022/01/22 08:54:48;;;;;;;3.28;2.20;;;;;;;1.61;74.86;99619.25;5065087;28;20281;-66
2022/01/22 08:57:18;;;;;;;2.60;2.00;;;;;;;1.64;74.41;99621.81;5064396;28;20041;-67
2022/01/22 08:59:48;;;;;;;4.28;2.10;;;;;;;1.69;74.37;99669.66;5064736;28;20068;-66
2022/01/22 09:02:19;;;;;;;3.00;2.30;;;;;;;1.73;74.36;99638.22;5064885;28;20043;-66
2022/01/22 09:04:49;;;;;;;5.38;2.47;;;;;;;1.80;74.28;99646.84;5065122;28;20053;-67
2022/01/22 09:07:20;;;;;;;2.80;2.20;;;;;;;1.83;73.93;99644.16;5065594;28;20061;-67
2022/01/22 09:09:49;;;;;;;3.17;2.20;;;;;;;1.85;73.94;99650.25;5069090;28;20049;-66
2022/01/22 09:12:19;;;;;;;3.17;1.90;;;;;;;1.90;73.95;99656.25;5068309;28;20068;-66
2022/01/22 09:14:49;;;;;;;3.17;2.20;;;;;;;1.94;73.75;99654.47;5069004;28;20087;-66
2022/01/22 09:17:19;;;;;;;2.90;2.00;;;;;;;1.72;73.69;99617.34;5069179;28;20040;-66
2022/01/22 09:19:56;;;;;;;3.33;2.10;;;;;;;2.01;73.39;99663.94;5068644;28;20041;-66
2022/01/22 09:22:30;;;;;;;5.25;2.25;;;;;;;2.04;73.78;99656.91;5068780;28;20297;-66
2022/01/22 09:25:02;;;;;;;2.75;2.00;;;;;;;2.09;73.34;99667.28;5069121;28;20041;-66
2022/01/22 09:27:34;;;;;;;3.15;2.17;;;;;;;2.12;73.06;99673.34;5068938;28;20043;-66
2022/01/22 09:30:07;;;;;;;4.45;2.75;;;;;;;2.13;72.94;99672.44;5068763;28;20091;-66
2022/01/22 09:32:40;;;;;;;4.10;2.00;;;;;;;2.15;72.72;99681.13;5067654;28;20344;-66
2022/01/22 09:35:12;;;;;;;3.00;2.10;;;;;;;2.16;72.36;99688.09;5068472;28;20146;-66
2022/01/22 09:37:46;;;;;;;3.90;2.33;;;;;;;2.20;72.39;99688.91;5068057;28;20044;-66
2022/01/22 09:40:20;;;;;;;2.83;1.75;;;;;;;2.20;72.64;99689.75;5068289;28;20049;-66
2022/01/22 09:42:53;;;;;;;4.60;4.20;;;;;;;2.25;72.49;99701.91;5068443;28;20047;-66
2022/01/22 09:45:26;;;;;;;3.10;2.55;;;;;;;2.25;72.58;99702.78;5068220;28;20083;-66
2022/01/22 09:48:00;;;;;;;3.38;2.10;;;;;;;2.26;72.64;99701.88;5067256;28;20052;-66
2022/01/22 09:50:33;;;;;;;3.42;2.30;;;;;;;2.29;72.40;99708.81;5068382;28;20098;-65
2022/01/22 09:53:07;;;;;;;4.03;2.25;;;;;;;2.30;72.43;99707.94;5068314;28;20285;-65
2022/01/22 09:55:39;;;;;;;3.13;1.95;;;;;;;2.32;72.44;99707.00;5068435;28;20041;-66
2022/01/22 09:58:12;;;;;;;4.25;2.00;;;;;;;2.36;72.43;99707.81;5067948;28;20228;-66
2022/01/22 10:00:44;;;;;;;5.15;2.42;;;;;;;1.22;72.04;99528.38;5067778;28;20059;-66
2022/01/22 10:03:19;;;;;;;3.97;2.50;;;;;;;2.41;71.79;99713.84;5068112;28;20090;-66
2022/01/22 10:05:51;;;;;;;3.90;2.65;;;;;;;2.16;71.95;99663.69;5067947;28;20260;-66
2022/01/22 10:08:27;;;;;;;5.82;2.67;;;;;;;2.47;71.99;99722.47;5067122;28;20040;-66
2022/01/22 10:11:01;;;;;;;4.63;2.75;;;;;;;2.52;72.06;99715.41;5067814;28;20091;-65
2022/01/22 10:13:42;;;;;;;3.50;2.57;;;;;;;2.54;71.86;99716.22;5067830;28;20041;-65
2022/01/22 10:16:16;;;;;;;4.15;2.65;;;;;;;2.34;71.43;99673.84;5068091;28;20384;-65
2022/01/22 10:19:09;;;;;;;3.90;2.00;;;;;;;2.57;71.80;99723.16;5067622;28;20041;-64
2022/01/22 10:21:43;;;;;;;3.33;2.22;;;;;;;2.56;70.85;99726.66;5067685;28;20091;-64
2022/01/22 10:24:38;;;;;;;3.33;2.25;;;;;;;2.61;71.08;99730.06;5067645;28;20091;-65
2022/01/22 10:27:26;;;;;;;3.50;2.33;;;;;;;2.63;70.95;99724.81;5066708;28;20078;-66
2022/01/22 10:30:01;;;;;;;3.42;2.20;;;;;;;2.72;70.54;99722.91;5067465;28;20041;-65
2022/01/22 10:32:45;;;;;;;4.35;3.00;;;;;;;2.80;70.58;99730.63;5067652;28;20087;-65
2022/01/22 10:35:19;;;;;;;4.15;2.40;;;;;;;2.85;70.14;99723.53;5067534;28;20049;-64
2022/01/22 10:37:54;;;;;;;3.75;2.70;;;;;;;2.98;70.05;99718.94;5067485;28;20095;-64
2022/01/22 10:40:29;;;;;;;;;;;;;;;3.03;69.64;99722.34;5067972;28;20045;-64
2022/01/22 10:43:15;;;;;;;4.95;2.53;;;;;;;3.13;69.15;99737.00;5066681;28;19917;-65
2022/01/22 10:46:08;;;;;;;4.70;2.45;;;;;;;3.14;68.47;99742.19;5067406;28;20040;-65
2022/01/22 10:48:43;;;;;;;4.15;2.20;;;;;;;3.20;67.83;99735.97;5067027;28;20091;-65
2022/01/22 10:51:16;;;;;;;3.13;2.30;;;;;;;3.09;67.36;99680.31;5066090;28;20114;-65
2022/01/22 10:53:51;;;;;;;3.38;2.20;;;;;;;2.97;67.15;99651.75;5066842;28;20041;-65
2022/01/22 10:56:26;;;;;;;3.83;2.28;;;;;;;3.53;66.23;99726.59;5066890;28;20295;-65
2022/01/22 10:59:00;;;;;;;3.47;2.22;;;;;;;3.62;65.93;99730.78;5066913;28;20297;-65
2022/01/22 11:01:47;;;;;;;4.25;2.42;;;;;;;3.70;64.62;99727.09;5066610;28;20233;-66
2022/01/22 11:04:22;;;;;;;3.33;2.22;;;;;;;3.76;64.83;99733.97;5065922;28;20044;-66
2022/01/22 11:06:55;;;;;;;;;;;;;;;3.87;63.47;99738.97;5066964;28;20086;-65
2022/01/22 11:09:29;;;;;;;3.53;2.25;;;;;;;3.74;63.27;99689.44;5066634;28;19924;-65
2022/01/22 11:12:05;;;;;;;3.55;2.25;;;;;;;4.08;62.74;99731.50;5065843;28;20296;-66
2022/01/22 11:14:38;;;;;;;3.22;2.00;;;;;;;4.29;62.97;99738.03;5066426;28;20041;-68
2022/01/22 11:17:11;;;;;;;4.18;2.33;;;;;;;4.06;61.98;99648.50;5066513;28;20098;-65
2022/01/22 11:19:45;;;;;;;3.22;2.00;;;;;;;4.90;61.33;99731.28;5066775;28;20127;-65
2022/01/22 11:22:17;;;;;;;4.50;2.85;;;;;;;3.88;60.16;99593.88;5066695;28;20047;-65
2022/01/22 11:24:48;;;;;;;4.15;2.88;;;;;;;4.82;60.66;99739.34;5066878;28;20048;-65
2022/01/22 11:27:20;;;;;;;3.95;2.50;;;;;;;4.43;60.39;99691.31;5065383;28;20102;-65
2022/01/22 11:29:55;;;;;;;5.55;2.75;;;;;;;4.60;60.53;99756.53;5066462;28;20087;-65
2022/01/22 11:32:33;;;;;;;3.78;2.30;;;;;;;4.35;60.17;99758.00;5065485;28;20281;-66
2022/01/22 11:35:08;;;;;;;3.58;2.13;;;;;;;4.18;59.95;99766.25;5066332;28;20087;-66
2022/01/22 11:37:46;;;;;;;3.70;2.90;;;;;;;3.79;60.34;99729.53;5065378;28;20078;-65
2022/01/22 11:40:22;;;;;;;3.08;2.08;;;;;;;3.52;59.38;99737.97;5066389;28;20044;-65
2022/01/22 11:43:02;;;;;;;2.80;1.90;;;;;;;3.69;59.40;99804.00;5066253;28;20048;-65
2022/01/22 11:45:38;;;;;;;3.55;2.15;;;;;;;3.59;60.02;99801.59;5066016;28;20281;-65
2022/01/22 11:48:13;;;;;;;3.08;2.15;;;;;;;3.50;59.74;99819.22;5065948;28;20141;-65
2022/01/22 11:50:47;;;;;;;3.78;2.55;;;;;;;3.43;60.91;99822.00;5065292;28;20041;-65
2022/01/22 11:53:29;;;;;;;3.67;2.33;;;;;;;3.28;61.63;99828.38;5066239;28;20040;-65
2022/01/22 11:56:26;;;;;;;4.18;2.58;;;;;;;3.15;62.47;99839.97;5065821;28;20237;-66
2022/01/22 11:59:23;;;;;;;3.75;2.53;;;;;;;3.00;63.10;99833.25;5064875;28;20053;-65
2022/01/22 12:02:07;;;;;;;3.30;2.40;;;;;;;2.88;63.89;99836.06;5064930;28;20213;-65
2022/01/22 12:04:52;;;;;;;3.97;2.78;;;;;;;2.79;64.15;99842.31;5065498;28;20339;-65
2022/01/22 12:07:26;;;;;;;3.35;2.20;;;;;;;2.35;65.12;99784.56;5065652;28;20037;-65
2022/01/22 12:10:33;;;;;;;3.92;2.53;;;;;;;2.63;65.08;99856.53;5048170;28;20231;-64
2022/01/22 12:16:50;;;;;;;3.20;2.25;;;;;;;2.52;65.06;99879.38;5065010;28;20049;-65
2022/01/22 12:19:51;;;;;;;6.47;3.25;;;;;;;2.51;65.00;99888.97;5064589;28;20067;-66
2022/01/22 12:22:31;;;;;;;4.35;2.60;;;;;;;2.23;65.19;99844.03;5065582;28;20238;-65
2022/01/22 12:25:24;;;;;;;5.25;2.92;;;;;;;2.49;65.34;99903.81;5065421;28;20040;-65
2022/01/22 12:27:58;;;;;;;6.70;3.97;;;;;;;2.46;65.19;99901.25;5065115;28;20041;-65
2022/01/22 12:30:34;;;;;;;4.45;2.92;;;;;;;1.34;64.68;99780.63;5064538;28;20193;-65
2022/01/22 12:33:11;;;;;;;6.13;3.40;;;;;;;2.36;65.03;99917.97;5065200;28;20057;-65
2022/01/22 12:35:47;;;;;;;6.45;3.95;;;;;;;2.34;65.19;99926.72;5065339;28;20045;-65
2022/01/22 12:38:26;;;;;;;5.47;3.78;;;;;;;2.36;65.21;99933.66;5065093;28;20066;-65
2022/01/22 12:41:14;;;;;;;5.72;3.20;;;;;;;2.30;65.12;99936.34;5065105;28;20051;-65
2022/01/22 12:43:47;;;;;;;3.72;2.25;;;;;;;2.28;65.31;99943.34;5064922;28;20114;-65
2022/01/22 12:46:19;;;;;;;3.45;2.53;;;;;;;2.23;65.33;99947.75;5064548;28;20051;-65
2022/01/22 12:48:53;;;;;;;4.57;2.75;;;;;;;1.92;64.81;99908.03;5064929;28;20223;-65
2022/01/22 12:51:26;;;;;;;4.07;2.28;;;;;;;2.25;65.11;99959.06;5064217;28;20044;-65
2022/01/22 12:53:59;;;;;;;5.05;2.55;;;;;;;1.96;65.20;99951.56;5065186;28;20041;-66
2022/01/22 12:56:51;;;;;;;3.55;2.65;;;;;;;2.20;65.30;99968.72;5064500;28;20041;-65
2022/01/22 12:59:23;;;;;;;4.30;3.35;;;;;;;2.18;65.38;99975.72;5065135;28;20041;-66
2022/01/22 13:01:55;;;;;;;6.00;2.88;;;;;;;2.11;65.33;99980.16;5064369;28;20104;-65
2022/01/22 13:04:29;;;;;;;4.53;2.97;;;;;;;2.17;65.34;99976.59;5064124;28;20061;-66
2022/01/22 13:07:01;;;;;;;4.75;3.45;;;;;;;2.15;65.44;99978.38;5064777;28;20053;-66
2022/01/22 13:09:48;;;;;;;5.07;2.92;;;;;;;1.62;64.89;99897.91;5064878;28;20048;-66
2022/01/22 13:12:20;;;;;;;4.60;2.88;;;;;;;2.15;65.32;99987.09;5064789;28;20408;-66
2022/01/22 13:14:56;;;;;;;4.72;3.40;;;;;;;1.37;64.92;99851.13;5064981;28;20064;-65
2022/01/22 13:17:30;;;;;;;4.55;2.90;;;;;;;2.13;64.86;99981.00;5064952;28;20045;-66
2022/01/22 13:20:05;;;;;;;;;;;;;;;2.07;65.25;99994.13;5065228;28;20276;-66
2022/01/22 13:22:39;;;;;;;4.80;3.25;;;;;;;2.04;65.72;99982.84;5063810;28;19917;-66
2022/01/22 13:25:15;;;;;;;4.72;3.78;;;;;;;2.02;65.96;99995.94;5064657;28;20037;-65
2022/01/22 13:28:00;;;;;;;5.43;3.05;;;;;;;2.08;65.98;100023.78;5064666;28;20048;-65
2022/01/22 13:30:42;;;;;;;4.20;3.05;;;;;;;2.23;65.78;99987.84;5065003;28;20041;-65
2022/01/22 13:33:19;;;;;;;4.78;3.40;;;;;;;2.48;65.33;99990.19;5064743;28;20103;-66